Wahkon, Minnesota
Current Conditions -  °F | °C
As of 1:05 PM on Saturday 20 Dec 2014 (Local Time) from KJMR Reporting Station
Overcast Overcast  
Wind Chill: 25°   Ceiling: 800
Heat Index: 32°   Visibility: 4mi
Dew Point: 28°   Wind: 8mph
Humidity: 87%   Direction: 190°S
Pressure: 30.11"   Gusts: NA
Location:  46.12°N, 93.52°W
Report Text: KJMR 201905Z AUTO 19007KT 4SM OVC008 00/M02 A3011 RMK AO2
Loading
Personal Weather Stations






























Interactive Weather Map New forecast layout! Learn more

10-Day Weather Forecast

Advertisements
Track Severe Weather on mobile